Time;durP1;ratioP1;P1;durP2;ratioP2;P2;SDS_P1;SDS_P2;PMS_P1;PMS_P2;Temp;Humidity;BMP_temperature;BMP_pressure;BME280_temperature;BME280_humidity;BME280_pressure;Samples;Min_cycle;Max_cycle;Signal;HPM_P1;HPM_P2
2021/03/14 00:02:01;;;;;;;7.93;2.43;;;;;;;;;;5049237;28;20197;-66
2021/03/14 00:04:26;;;;;;;5.53;2.07;;;;;;;;;;5047826;28;20193;-67
2021/03/14 00:06:51;;;;;;;6.83;1.80;;;;;;;;;;5046465;28;20181;-66
2021/03/14 00:09:16;;;;;;;13.40;1.98;;;;;;;;;;5028385;28;20235;-65
2021/03/14 00:11:41;;;;;;;9.90;1.97;;;;;;;;;;5028060;28;20195;-66
2021/03/14 00:14:06;;;;;;;9.40;2.10;;;;;;;;;;5035701;28;20698;-66
2021/03/14 00:16:32;;;;;;;11.47;2.20;;;;;;;;;;5040925;28;20209;-65
2021/03/14 00:18:57;;;;;;;9.57;1.93;;;;;;;;;;5038448;28;20269;-66
2021/03/14 00:21:22;;;;;;;8.67;2.30;;;;;;;;;;5027618;28;20212;-66
2021/03/14 00:23:47;;;;;;;8.20;2.27;;;;;;;;;;5026069;28;20213;-66
2021/03/14 00:26:13;;;;;;;6.17;1.93;;;;;;;;;;5023603;28;20812;-65
2021/03/14 00:28:38;;;;;;;11.03;3.40;;;;;;;;;;5026525;28;20563;-66
2021/03/14 00:31:03;;;;;;;9.93;2.23;;;;;;;;;;5021679;28;20198;-66
2021/03/14 00:33:29;;;;;;;9.83;2.50;;;;;;;;;;5021328;28;20197;-66
2021/03/14 00:35:54;;;;;;;10.13;2.23;;;;;;;;;;5022630;28;20217;-66
2021/03/14 00:38:19;;;;;;;9.60;2.73;;;;;;;;;;5021020;28;20923;-66
2021/03/14 00:40:44;;;;;;;7.70;2.10;;;;;;;;;;5022234;28;20210;-66
2021/03/14 00:43:10;;;;;;;8.63;1.90;;;;;;;;;;5021542;28;20189;-66
2021/03/14 00:45:36;;;;;;;9.80;2.43;;;;;;;;;;5021474;28;20300;-66
2021/03/14 00:48:03;;;;;;;13.13;2.17;;;;;;;;;;5019915;28;20207;-66
2021/03/14 00:50:30;;;;;;;12.77;1.90;;;;;;;;;;5021673;28;20204;-66
2021/03/14 00:52:55;;;;;;;7.40;2.10;;;;;;;;;;5020446;28;20272;-65
2021/03/14 00:55:20;;;;;;;5.87;1.67;;;;;;;;;;5022545;28;20535;-66
2021/03/14 00:57:46;;;;;;;4.07;1.87;;;;;;;;;;5020711;28;20182;-65
2021/03/14 01:00:11;;;;;;;11.07;2.40;;;;;;;;;;5021094;28;20249;-66
2021/03/14 01:02:36;;;;;;;11.53;2.27;;;;;;;;;;5039687;28;20273;-66
2021/03/14 01:05:01;;;;;;;9.25;2.08;;;;;;;;;;5048451;28;20280;-66
2021/03/14 01:07:27;;;;;;;11.40;2.07;;;;;;;;;;5053228;28;20182;-66
2021/03/14 01:09:52;;;;;;;12.90;1.90;;;;;;;;;;5046551;28;20660;-66
2021/03/14 01:12:17;;;;;;;10.00;2.10;;;;;;;;;;5046630;28;20186;-66
2021/03/14 01:14:42;;;;;;;9.83;1.73;;;;;;;;;;5045089;28;20220;-66
2021/03/14 01:17:07;;;;;;;10.03;2.27;;;;;;;;;;5048007;28;20182;-65
2021/03/14 01:19:32;;;;;;;12.00;1.77;;;;;;;;;;5047164;28;20201;-65
2021/03/14 01:21:58;;;;;;;8.53;2.43;;;;;;;;;;5051399;28;20546;-66
2021/03/14 01:24:23;;;;;;;9.60;2.67;;;;;;;;;;5049985;28;20268;-66
2021/03/14 01:26:49;;;;;;;10.80;2.53;;;;;;;;;;5052650;28;20259;-66
2021/03/14 01:29:14;;;;;;;5.77;2.13;;;;;;;;;;5043769;28;20198;-66
2021/03/14 01:31:39;;;;;;;9.03;2.60;;;;;;;;;;5048911;28;20288;-66
2021/03/14 01:34:04;;;;;;;17.83;2.83;;;;;;;;;;5043810;28;20659;-67
2021/03/14 01:36:29;;;;;;;7.60;2.17;;;;;;;;;;5049405;28;20231;-66
2021/03/14 01:38:54;;;;;;;11.33;3.10;;;;;;;;;;5044548;28;20190;-66
2021/03/14 01:41:20;;;;;;;10.53;2.73;;;;;;;;;;5046836;28;20692;-67
2021/03/14 01:43:45;;;;;;;10.40;2.50;;;;;;;;;;5048332;28;20178;-66
2021/03/14 01:46:10;;;;;;;10.03;1.80;;;;;;;;;;5051290;28;20620;-66
2021/03/14 01:48:36;;;;;;;14.17;2.60;;;;;;;;;;5049146;28;20174;-66
2021/03/14 01:51:02;;;;;;;12.37;2.17;;;;;;;;;;5046233;28;20205;-66
2021/03/14 01:53:27;;;;;;;14.43;3.00;;;;;;;;;;5049867;28;20268;-66
2021/03/14 01:55:53;;;;;;;8.53;1.80;;;;;;;;;;5051116;28;20332;-66
2021/03/14 01:58:20;;;;;;;10.10;2.47;;;;;;;;;;5050318;28;20193;-66
2021/03/14 02:00:45;;;;;;;9.17;2.00;;;;;;;;;;5051186;28;20212;-66
2021/03/14 02:03:10;;;;;;;14.67;3.30;;;;;;;;;;5044716;28;20190;-66
2021/03/14 02:05:35;;;;;;;10.13;3.07;;;;;;;;;;5048921;28;20220;-66
2021/03/14 02:08:00;;;;;;;8.73;2.07;;;;;;;;;;5053397;28;20189;-65
2021/03/14 02:10:26;;;;;;;14.93;2.30;;;;;;;;;;5029798;28;20277;-66
2021/03/14 02:12:53;;;;;;;10.40;2.50;;;;;;;;;;5051490;28;20204;-66
2021/03/14 02:15:19;;;;;;;9.57;1.97;;;;;;;;;;5046855;28;20217;-65
2021/03/14 02:17:46;;;;;;;12.20;2.60;;;;;;;;;;5044528;28;20269;-66
2021/03/14 02:20:13;;;;;;;13.30;3.13;;;;;;;;;;5048637;28;20220;-66
2021/03/14 02:22:42;;;;;;;13.57;2.80;;;;;;;;;;5043055;28;21070;-66
2021/03/14 02:25:11;;;;;;;12.77;2.33;;;;;;;;;;5041808;28;20178;-67
2021/03/14 02:27:37;;;;;;;13.13;2.20;;;;;;;;;;5043296;28;20185;-66
2021/03/14 02:30:03;;;;;;;11.07;2.37;;;;;;;;;;5047893;28;20782;-68
2021/03/14 02:32:29;;;;;;;7.10;2.17;;;;;;;;;;5049586;28;20189;-66
2021/03/14 02:34:57;;;;;;;6.43;1.90;;;;;;;;;;5051229;28;20260;-66
2021/03/14 02:37:23;;;;;;;9.67;2.17;;;;;;;;;;5048569;28;20173;-66
2021/03/14 02:39:52;;;;;;;14.20;2.50;;;;;;;;;;5045561;28;20537;-65
2021/03/14 02:42:17;;;;;;;9.30;2.00;;;;;;;;;;5049153;28;20342;-66
2021/03/14 02:44:44;;;;;;;13.73;2.50;;;;;;;;;;5050284;28;20260;-66
2021/03/14 02:47:09;;;;;;;12.27;2.53;;;;;;;;;;5045569;28;20680;-67
2021/03/14 02:49:35;;;;;;;7.37;2.17;;;;;;;;;;5047978;28;20280;-66
2021/03/14 02:52:03;;;;;;;11.00;2.87;;;;;;;;;;5050309;28;20250;-67
2021/03/14 02:54:28;;;;;;;13.37;2.03;;;;;;;;;;5047934;28;20314;-66
2021/03/14 02:56:54;;;;;;;6.40;1.63;;;;;;;;;;5044660;28;20628;-66
2021/03/14 02:59:21;;;;;;;7.17;1.70;;;;;;;;;;5046058;28;20205;-66
2021/03/14 03:01:47;;;;;;;8.67;2.10;;;;;;;;;;5045025;28;20233;-66
2021/03/14 03:04:13;;;;;;;13.67;2.13;;;;;;;;;;5048515;28;20178;-66
2021/03/14 03:06:39;;;;;;;6.47;2.50;;;;;;;;;;5044839;28;20196;-66
2021/03/14 03:09:04;;;;;;;9.63;2.10;;;;;;;;;;5046380;28;20671;-66
2021/03/14 03:11:30;;;;;;;8.87;2.50;;;;;;;;;;5049065;28;20185;-66
2021/03/14 03:13:55;;;;;;;9.30;3.30;;;;;;;;;;5043904;28;20227;-66
2021/03/14 03:16:22;;;;;;;14.17;2.27;;;;;;;;;;5047997;28;20173;-66
2021/03/14 03:18:47;;;;;;;9.03;2.10;;;;;;;;;;5044902;28;20178;-67
2021/03/14 03:21:13;;;;;;;10.00;2.50;;;;;;;;;;5046066;28;20217;-66
2021/03/14 03:23:39;;;;;;;9.13;2.33;;;;;;;;;;5049288;28;20261;-66
2021/03/14 03:26:04;;;;;;;13.83;3.17;;;;;;;;;;5045659;28;20536;-66
2021/03/14 03:28:30;;;;;;;10.00;3.43;;;;;;;;;;5045648;28;20228;-66
2021/03/14 03:30:55;;;;;;;12.83;2.00;;;;;;;;;;5047836;28;20219;-66
2021/03/14 03:33:20;;;;;;;10.13;4.23;;;;;;;;;;5049214;28;20201;-66
2021/03/14 03:35:46;;;;;;;12.33;2.20;;;;;;;;;;5050888;28;20635;-66
2021/03/14 03:38:11;;;;;;;8.13;2.40;;;;;;;;;;5045217;28;20190;-67
2021/03/14 03:40:36;;;;;;;9.70;1.83;;;;;;;;;;5053790;28;20205;-66
2021/03/14 03:43:20;;;;;;;10.80;2.20;;;;;;;;;;5049086;28;20170;-64
2021/03/14 03:45:48;;;;;;;12.90;2.53;;;;;;;;;;5043685;28;20178;-67
2021/03/14 03:48:15;;;;;;;13.13;2.27;;;;;;;;;;5044729;28;20186;-66
2021/03/14 03:50:41;;;;;;;9.17;2.17;;;;;;;;;;5048861;28;20698;-66
2021/03/14 03:53:07;;;;;;;11.30;2.83;;;;;;;;;;5051507;28;20212;-67
2021/03/14 03:55:32;;;;;;;11.33;2.90;;;;;;;;;;5051940;28;20234;-65
2021/03/14 03:57:58;;;;;;;7.40;2.10;;;;;;;;;;5053530;28;20212;-66
2021/03/14 04:00:23;;;;;;;10.53;2.57;;;;;;;;;;5052831;28;20198;-66
2021/03/14 04:02:48;;;;;;;13.73;2.93;;;;;;;;;;5052838;28;20178;-66
2021/03/14 04:05:14;;;;;;;7.97;2.10;;;;;;;;;;5053339;28;20182;-66
2021/03/14 04:07:42;;;;;;;9.87;2.07;;;;;;;;;;5051972;28;20217;-66
2021/03/14 04:10:08;;;;;;;12.00;2.07;;;;;;;;;;5045652;28;20205;-67
2021/03/14 04:12:34;;;;;;;14.47;2.43;;;;;;;;;;5044337;28;20178;-66
2021/03/14 04:15:00;;;;;;;10.80;3.13;;;;;;;;;;5048258;28;20192;-64
2021/03/14 04:17:26;;;;;;;7.53;2.53;;;;;;;;;;5053962;28;20180;-66
2021/03/14 04:19:51;;;;;;;6.83;1.97;;;;;;;;;;5052234;28;20209;-66
2021/03/14 04:22:17;;;;;;;6.87;2.70;;;;;;;;;;5051037;28;20206;-66
2021/03/14 04:24:43;;;;;;;6.43;2.13;;;;;;;;;;5051449;28;20208;-65
2021/03/14 04:27:09;;;;;;;6.60;2.67;;;;;;;;;;5053843;28;20179;-66
2021/03/14 04:29:35;;;;;;;8.57;2.20;;;;;;;;;;5050811;28;20663;-66
2021/03/14 04:32:01;;;;;;;5.33;2.50;;;;;;;;;;5052142;28;20276;-66
2021/03/14 04:34:26;;;;;;;3.97;2.30;;;;;;;;;;5049746;28;20610;-66
2021/03/14 04:36:52;;;;;;;4.63;1.97;;;;;;;;;;5052054;28;20186;-65
2021/03/14 04:39:17;;;;;;;3.73;1.97;;;;;;;;;;5045762;28;20218;-65
2021/03/14 04:41:43;;;;;;;10.63;2.20;;;;;;;;;;5031107;28;20202;-65
2021/03/14 04:44:09;;;;;;;6.87;2.60;;;;;;;;;;5045400;28;20177;-66
2021/03/14 04:46:35;;;;;;;7.80;2.70;;;;;;;;;;5051781;28;20173;-65
2021/03/14 04:49:00;;;;;;;9.53;2.40;;;;;;;;;;5052151;28;20194;-66
2021/03/14 04:51:26;;;;;;;7.67;2.67;;;;;;;;;;5053667;28;20715;-66
2021/03/14 04:53:52;;;;;;;6.07;2.10;;;;;;;;;;5051616;28;20177;-66
2021/03/14 04:56:18;;;;;;;6.93;2.20;;;;;;;;;;5052302;28;20186;-66
2021/03/14 04:58:44;;;;;;;10.60;2.87;;;;;;;;;;5046267;28;20174;-66
2021/03/14 05:01:10;;;;;;;8.47;2.33;;;;;;;;;;5042855;28;20232;-66
2021/03/14 05:03:36;;;;;;;6.60;2.10;;;;;;;;;;5050173;28;20178;-66
2021/03/14 05:06:01;;;;;;;5.67;2.30;;;;;;;;;;5052224;28;20181;-67
2021/03/14 05:08:27;;;;;;;7.90;2.90;;;;;;;;;;5045862;28;20174;-67
2021/03/14 05:10:53;;;;;;;6.57;1.90;;;;;;;;;;5049486;28;20335;-67
2021/03/14 05:13:18;;;;;;;7.03;3.17;;;;;;;;;;5044687;28;20611;-67
2021/03/14 05:15:48;;;;;;;3.93;2.30;;;;;;;;;;5050803;28;20749;-65
2021/03/14 05:18:13;;;;;;;5.30;2.37;;;;;;;;;;5052071;28;20190;-67
2021/03/14 05:20:40;;;;;;;5.20;2.00;;;;;;;;;;5050674;28;20213;-66
2021/03/14 05:23:05;;;;;;;7.53;2.23;;;;;;;;;;5047893;28;20303;-66
2021/03/14 05:25:31;;;;;;;6.57;2.33;;;;;;;;;;5048211;28;20260;-67
2021/03/14 05:27:56;;;;;;;8.40;2.33;;;;;;;;;;5043583;28;20177;-66
2021/03/14 05:30:22;;;;;;;12.70;2.43;;;;;;;;;;5050057;28;20194;-66
2021/03/14 05:32:48;;;;;;;6.80;2.40;;;;;;;;;;5050463;28;20722;-67
2021/03/14 05:35:13;;;;;;;5.87;2.27;;;;;;;;;;5050995;28;20184;-67
2021/03/14 05:37:39;;;;;;;6.60;2.43;;;;;;;;;;5052414;28;20196;-66
2021/03/14 05:40:04;;;;;;;12.07;3.30;;;;;;;;;;5050795;28;20225;-67
2021/03/14 05:42:29;;;;;;;11.97;2.70;;;;;;;;;;5048301;28;20251;-67
2021/03/14 05:44:55;;;;;;;7.03;1.90;;;;;;;;;;5050829;28;20212;-66
2021/03/14 05:47:20;;;;;;;9.30;2.20;;;;;;;;;;5040055;28;20564;-67
2021/03/14 05:49:45;;;;;;;9.43;3.00;;;;;;;;;;5047681;28;20189;-67
2021/03/14 05:52:15;;;;;;;5.13;2.00;;;;;;;;;;5051870;28;20189;-66
2021/03/14 05:54:41;;;;;;;9.73;2.37;;;;;;;;;;5050859;28;20185;-67
2021/03/14 05:57:06;;;;;;;5.00;2.30;;;;;;;;;;5051393;28;20187;-66
2021/03/14 05:59:31;;;;;;;6.40;2.50;;;;;;;;;;5046563;28;20288;-67
2021/03/14 06:02:00;;;;;;;8.10;2.30;;;;;;;;;;5042625;28;20240;-67
2021/03/14 06:04:25;;;;;;;12.47;2.90;;;;;;;;;;5049767;28;20177;-66
2021/03/14 06:06:50;;;;;;;9.53;2.40;;;;;;;;;;5049731;28;20256;-66
2021/03/14 06:09:16;;;;;;;12.33;2.43;;;;;;;;;;5049555;28;20194;-67
2021/03/14 06:11:41;;;;;;;8.27;2.43;;;;;;;;;;5045957;28;20213;-67
2021/03/14 06:14:07;;;;;;;9.57;2.57;;;;;;;;;;5049511;28;20316;-66
2021/03/14 06:16:32;;;;;;;8.47;2.40;;;;;;;;;;5048869;28;20188;-66
2021/03/14 06:18:57;;;;;;;13.23;3.13;;;;;;;;;;5043777;28;20711;-67
2021/03/14 06:21:24;;;;;;;9.67;3.43;;;;;;;;;;5048975;28;20194;-67
2021/03/14 06:24:06;;;;;;;12.83;2.30;;;;;;;;;;5049773;28;20190;-66
2021/03/14 06:26:47;;;;;;;6.40;2.30;;;;;;;;;;5044273;28;20186;-67
2021/03/14 06:29:19;;;;;;;7.63;2.20;;;;;;;;;;5048673;28;20229;-66
2021/03/14 06:31:47;;;;;;;7.47;3.20;;;;;;;;;;5045127;28;20190;-66
2021/03/14 06:34:25;;;;;;;9.67;2.77;;;;;;;;;;5051306;28;20260;-67
2021/03/14 06:36:50;;;;;;;12.27;2.53;;;;;;;;;;5046980;28;20182;-65
2021/03/14 06:39:22;;;;;;;9.90;2.87;;;;;;;;;;5045192;28;20267;-66
2021/03/14 06:41:48;;;;;;;7.27;2.43;;;;;;;;;;5049922;28;20209;-67
2021/03/14 06:44:20;;;;;;;10.87;3.20;;;;;;;;;;5044611;28;20882;-67
2021/03/14 06:46:45;;;;;;;10.57;2.60;;;;;;;;;;5046060;28;20667;-67
2021/03/14 06:49:12;;;;;;;8.13;2.40;;;;;;;;;;5048248;28;20193;-67
2021/03/14 06:51:38;;;;;;;15.37;4.07;;;;;;;;;;5044261;28;20178;-67
2021/03/14 06:54:22;;;;;;;6.90;2.77;;;;;;;;;;5041941;28;20228;-66
2021/03/14 06:56:57;;;;;;;8.90;2.90;;;;;;;;;;5046271;28;20182;-66
2021/03/14 06:59:23;;;;;;;6.97;3.10;;;;;;;;;;5043990;28;20204;-67
2021/03/14 07:01:58;;;;;;;10.33;3.07;;;;;;;;;;5045266;28;20229;-66
2021/03/14 07:04:50;;;;;;;9.07;2.70;;;;;;;;;;5044797;28;20200;-67
2021/03/14 07:07:15;;;;;;;11.30;3.00;;;;;;;;;;5042890;28;20196;-66
2021/03/14 07:09:40;;;;;;;8.00;3.30;;;;;;;;;;5050844;28;20189;-67
2021/03/14 07:12:19;;;;;;;10.80;3.30;;;;;;;;;;5040978;28;20260;-67
2021/03/14 07:14:44;;;;;;;9.20;3.33;;;;;;;;;;5047462;28;20189;-67
2021/03/14 07:17:10;;;;;;;10.20;3.23;;;;;;;;;;5047998;28;20665;-67
2021/03/14 07:19:36;;;;;;;6.63;3.27;;;;;;;;;;5046699;28;20559;-67
2021/03/14 07:22:11;;;;;;;9.53;4.17;;;;;;;;;;5050364;28;20721;-67
2021/03/14 07:24:38;;;;;;;7.87;3.37;;;;;;;;;;5046438;28;20723;-67
2021/03/14 07:27:04;;;;;;;11.20;3.90;;;;;;;;;;5048219;28;20178;-67
2021/03/14 07:29:30;;;;;;;6.30;3.33;;;;;;;;;;5051418;28;20198;-67
2021/03/14 07:31:55;;;;;;;12.40;4.37;;;;;;;;;;5053861;28;20708;-66
2021/03/14 07:34:21;;;;;;;10.80;4.00;;;;;;;;;;5046963;28;20190;-67
2021/03/14 07:36:47;;;;;;;12.07;5.43;;;;;;;;;;5049114;28;20650;-66
2021/03/14 07:39:12;;;;;;;10.07;4.40;;;;;;;;;;5038674;28;20525;-66
2021/03/14 07:41:37;;;;;;;15.07;4.10;;;;;;;;;;5045854;28;20206;-67
2021/03/14 07:44:03;;;;;;;11.37;5.47;;;;;;;;;;5050413;28;20201;-67
2021/03/14 07:46:28;;;;;;;10.97;4.83;;;;;;;;;;5045530;28;20243;-67
2021/03/14 07:48:54;;;;;;;9.40;3.63;;;;;;;;;;5041849;28;20182;-66
2021/03/14 07:51:21;;;;;;;12.63;3.90;;;;;;;;;;5043096;28;20174;-67
2021/03/14 07:53:46;;;;;;;11.60;5.07;;;;;;;;;;5041729;28;20182;-67
2021/03/14 07:56:11;;;;;;;11.60;5.30;;;;;;;;;;5046094;28;20189;-67
2021/03/14 07:58:37;;;;;;;13.97;4.43;;;;;;;;;;5043004;28;20916;-67
2021/03/14 08:01:21;;;;;;;9.10;4.53;;;;;;;;;;5054335;28;20251;-67
2021/03/14 08:03:46;;;;;;;11.60;4.40;;;;;;;;;;5051008;28;20647;-67
2021/03/14 08:06:11;;;;;;;12.70;4.27;;;;;;;;;;5041415;28;20209;-66
2021/03/14 08:08:36;;;;;;;9.57;4.67;;;;;;;;;;5041209;28;20182;-67
2021/03/14 08:11:01;;;;;;;12.52;4.68;;;;;;;;;;5032094;28;20213;-67
2021/03/14 08:13:29;;;;;;;10.40;5.17;;;;;;;;;;5036903;28;20192;-65
2021/03/14 08:16:01;;;;;;;14.30;4.60;;;;;;;;;;5041715;28;20240;-65
2021/03/14 08:18:34;;;;;;;12.03;5.30;;;;;;;;;;5042955;28;20186;-67
2021/03/14 08:21:00;;;;;;;9.47;4.30;;;;;;;;;;5042199;28;20292;-66
2021/03/14 08:23:40;;;;;;;12.03;5.17;;;;;;;;;;5040538;28;20260;-67
2021/03/14 08:26:14;;;;;;;10.50;4.27;;;;;;;;;;5052443;28;20647;-66
2021/03/14 08:28:39;;;;;;;9.93;4.53;;;;;;;;;;5038598;28;20717;-67
2021/03/14 08:31:05;;;;;;;19.53;5.97;;;;;;;;;;5040871;28;20305;-67
2021/03/14 08:33:32;;;;;;;14.50;4.87;;;;;;;;;;5044621;28;20174;-66
2021/03/14 08:36:04;;;;;;;10.03;4.50;;;;;;;;;;5040701;28;20221;-65
2021/03/14 08:38:32;;;;;;;12.37;5.07;;;;;;;;;;5041142;28;20614;-67
2021/03/14 08:41:16;;;;;;;11.73;4.30;;;;;;;;;;5041227;28;20251;-66
2021/03/14 08:43:42;;;;;;;9.43;4.53;;;;;;;;;;5041198;28;20173;-66
2021/03/14 08:46:07;;;;;;;12.40;4.17;;;;;;;;;;5040172;28;20538;-67
2021/03/14 08:48:32;;;;;;;13.97;6.80;;;;;;;;;;5035493;28;20182;-67
2021/03/14 08:50:57;;;;;;;6.03;3.73;;;;;;;;;;5040074;28;20251;-67
2021/03/14 08:53:23;;;;;;;10.40;3.57;;;;;;;;;;5038523;28;20557;-67
2021/03/14 08:55:49;;;;;;;7.37;3.40;;;;;;;;;;5045429;28;20215;-66
2021/03/14 08:58:14;;;;;;;10.27;3.27;;;;;;;;;;5039312;28;20181;-66
2021/03/14 09:00:40;;;;;;;11.03;3.10;;;;;;;;;;5038779;28;20688;-66
2021/03/14 09:03:05;;;;;;;6.57;2.87;;;;;;;;;;5048752;28;20170;-66
2021/03/14 09:05:53;;;;;;;6.80;3.23;;;;;;;;;;5047578;28;20682;-67
2021/03/14 09:08:18;;;;;;;6.17;2.73;;;;;;;;;;5047340;28;20178;-68
2021/03/14 09:10:43;;;;;;;6.40;2.53;;;;;;;;;;5051596;28;20572;-67
2021/03/14 09:13:08;;;;;;;8.80;3.07;;;;;;;;;;5048659;28;20177;-67
2021/03/14 09:15:34;;;;;;;9.43;3.43;;;;;;;;;;5049324;28;20265;-66
2021/03/14 09:17:59;;;;;;;4.83;2.57;;;;;;;;;;5046346;28;20206;-66
2021/03/14 09:20:24;;;;;;;6.53;2.80;;;;;;;;;;5047292;28;20225;-65
2021/03/14 09:22:50;;;;;;;9.07;3.20;;;;;;;;;;5046834;28;20693;-66
2021/03/14 09:25:15;;;;;;;9.63;3.47;;;;;;;;;;5047218;28;20904;-66
2021/03/14 09:27:42;;;;;;;16.40;3.77;;;;;;;;;;5040126;28;20170;-66
2021/03/14 09:30:07;;;;;;;12.93;3.77;;;;;;;;;;5040045;28;20622;-66
2021/03/14 09:32:32;;;;;;;5.00;2.17;;;;;;;;;;5041160;28;20197;-66
2021/03/14 09:35:11;;;;;;;15.50;3.20;;;;;;;;;;5037503;28;20209;-67
2021/03/14 09:37:37;;;;;;;7.47;2.53;;;;;;;;;;5039188;28;20230;-67
2021/03/14 09:40:11;;;;;;;6.13;2.10;;;;;;;;;;5039057;28;20197;-67
2021/03/14 09:42:36;;;;;;;6.70;2.83;;;;;;;;;;5048580;28;20208;-67
2021/03/14 09:45:03;;;;;;;9.20;3.23;;;;;;;;;;5043471;28;20235;-67
2021/03/14 09:47:28;;;;;;;11.97;2.83;;;;;;;;;;5045628;28;20188;-67
2021/03/14 09:49:58;;;;;;;8.13;2.77;;;;;;;;;;5050732;28;20185;-67
2021/03/14 09:52:23;;;;;;;8.63;2.70;;;;;;;;;;5053218;28;20182;-67
2021/03/14 09:54:51;;;;;;;9.77;3.10;;;;;;;;;;5047532;28;20677;-67
2021/03/14 09:57:19;;;;;;;9.57;3.03;;;;;;;;;;5047073;28;20190;-67
2021/03/14 09:59:45;;;;;;;8.87;3.00;;;;;;;;;;5054346;28;20254;-66
2021/03/14 10:02:10;;;;;;;6.37;3.03;;;;;;;;;;5043413;28;20220;-66
2021/03/14 10:04:48;;;;;;;8.80;2.50;;;;;;;;;;5034952;28;20205;-67
2021/03/14 10:07:25;;;;;;;14.30;3.33;;;;;;;;;;5038645;28;20188;-67
2021/03/14 10:09:51;;;;;;;7.50;2.93;;;;;;;;;;5040270;28;20229;-67
2021/03/14 10:12:16;;;;;;;5.93;2.70;;;;;;;;;;5038570;28;20177;-66
2021/03/14 10:14:42;;;;;;;18.47;2.70;;;;;;;;;;5039390;28;20181;-66
2021/03/14 10:17:07;;;;;;;11.03;2.60;;;;;;;;;;5039731;28;20182;-67
2021/03/14 10:19:33;;;;;;;7.33;2.73;;;;;;;;;;5039118;28;20279;-67
2021/03/14 10:21:58;;;;;;;11.63;2.77;;;;;;;;;;5035026;28;20212;-66
2021/03/14 10:24:25;;;;;;;8.17;2.40;;;;;;;;;;5041724;28;20224;-66
2021/03/14 10:26:53;;;;;;;10.87;3.10;;;;;;;;;;5039793;28;20216;-67
2021/03/14 10:29:19;;;;;;;8.50;2.93;;;;;;;;;;5037056;28;20202;-67
2021/03/14 10:31:45;;;;;;;8.73;3.17;;;;;;;;;;5037280;28;20691;-67
2021/03/14 10:34:10;;;;;;;8.27;3.03;;;;;;;;;;5040916;28;20360;-67
2021/03/14 10:36:36;;;;;;;7.90;2.10;;;;;;;;;;5029220;28;20192;-66
2021/03/14 10:39:02;;;;;;;12.60;2.90;;;;;;;;;;5039367;28;20213;-67
2021/03/14 10:41:27;;;;;;;10.40;3.17;;;;;;;;;;5039030;28;20619;-67
2021/03/14 10:44:01;;;;;;;9.53;3.43;;;;;;;;;;5043336;28;20265;-66
2021/03/14 10:46:52;;;;;;;5.97;2.53;;;;;;;;;;5042878;28;20170;-66
2021/03/14 10:49:24;;;;;;;6.77;2.50;;;;;;;;;;5041809;28;20217;-66
2021/03/14 10:51:51;;;;;;;6.70;2.37;;;;;;;;;;5046666;28;20565;-67
2021/03/14 10:54:16;;;;;;;7.37;2.40;;;;;;;;;;5043223;28;20264;-66
2021/03/14 10:56:45;;;;;;;13.63;3.23;;;;;;;;;;5043335;28;20281;-67
2021/03/14 10:59:22;;;;;;;9.20;2.63;;;;;;;;;;5047574;28;20225;-67
2021/03/14 11:01:48;;;;;;;9.33;2.37;;;;;;;;;;5048229;28;20201;-68
2021/03/14 11:04:14;;;;;;;10.27;3.13;;;;;;;;;;5035418;28;20218;-67
2021/03/14 11:06:39;;;;;;;11.70;2.83;;;;;;;;;;5043100;28;20213;-66
2021/03/14 11:09:05;;;;;;;10.93;3.67;;;;;;;;;;5045698;28;20228;-67
2021/03/14 11:11:39;;;;;;;8.67;2.60;;;;;;;;;;5042741;28;20651;-67
2021/03/14 11:14:23;;;;;;;5.33;2.33;;;;;;;;;;5040793;28;20180;-67
2021/03/14 11:17:07;;;;;;;11.73;2.77;;;;;;;;;;5045765;28;20188;-66
2021/03/14 11:19:33;;;;;;;6.03;2.17;;;;;;;;;;5047547;28;20207;-66
2021/03/14 11:21:58;;;;;;;7.30;2.17;;;;;;;;;;5043183;28;20265;-67
2021/03/14 11:24:23;;;;;;;9.73;1.90;;;;;;;;;;5038697;28;20182;-68
2021/03/14 11:26:48;;;;;;;9.53;3.17;;;;;;;;;;5043560;28;20186;-66
2021/03/14 11:29:13;;;;;;;11.47;2.27;;;;;;;;;;5042735;28;20198;-67
2021/03/14 11:31:39;;;;;;;10.23;2.33;;;;;;;;;;5045543;28;20208;-67
2021/03/14 11:34:04;;;;;;;8.53;2.30;;;;;;;;;;5040378;28;20181;-67
2021/03/14 11:36:29;;;;;;;7.33;2.57;;;;;;;;;;5044816;28;20528;-67
2021/03/14 11:38:54;;;;;;;6.50;2.00;;;;;;;;;;5048176;28;20254;-68
2021/03/14 11:41:20;;;;;;;7.10;1.97;;;;;;;;;;5043503;28;20209;-67
2021/03/14 11:43:45;;;;;;;5.70;2.30;;;;;;;;;;5045363;28;20257;-67
2021/03/14 11:46:10;;;;;;;7.93;2.23;;;;;;;;;;5043217;28;20194;-66
2021/03/14 11:48:35;;;;;;;9.10;2.33;;;;;;;;;;5043821;28;20177;-68
2021/03/14 11:51:00;;;;;;;14.13;3.80;;;;;;;;;;5042391;28;20603;-70
2021/03/14 11:53:26;;;;;;;10.23;2.17;;;;;;;;;;5045570;28;20178;-68
2021/03/14 11:55:51;;;;;;;5.90;2.27;;;;;;;;;;5042619;28;20189;-67
2021/03/14 11:58:16;;;;;;;8.73;2.43;;;;;;;;;;5041665;28;20731;-68
2021/03/14 12:00:41;;;;;;;9.37;2.83;;;;;;;;;;5044749;28;20213;-68
2021/03/14 12:03:06;;;;;;;10.47;2.70;;;;;;;;;;5039000;28;20170;-67
2021/03/14 12:05:32;;;;;;;8.53;2.60;;;;;;;;;;5049424;28;20169;-67
2021/03/14 12:07:57;;;;;;;7.40;2.33;;;;;;;;;;5043898;28;20181;-68
2021/03/14 12:10:22;;;;;;;12.77;3.77;;;;;;;;;;5042674;28;20201;-65
2021/03/14 12:12:47;;;;;;;5.83;2.50;;;;;;;;;;5047664;28;20181;-67
2021/03/14 12:15:13;;;;;;;8.83;4.00;;;;;;;;;;5050638;28;20627;-67
2021/03/14 12:17:38;;;;;;;12.43;3.33;;;;;;;;;;5044575;28;20260;-66
2021/03/14 12:20:04;;;;;;;8.47;2.87;;;;;;;;;;5044548;28;20196;-67
2021/03/14 12:22:29;;;;;;;5.27;2.00;;;;;;;;;;5050064;28;20259;-67
2021/03/14 12:24:54;;;;;;;8.17;2.43;;;;;;;;;;5042401;28;20615;-67
2021/03/14 12:27:20;;;;;;;10.57;2.50;;;;;;;;;;5048461;28;20455;-67
2021/03/14 12:29:45;;;;;;;9.10;1.97;;;;;;;;;;5046722;28;20573;-66
2021/03/14 12:32:11;;;;;;;5.90;1.77;;;;;;;;;;5045447;28;20353;-66
2021/03/14 12:34:36;;;;;;;5.67;2.20;;;;;;;;;;5042066;28;20178;-68
2021/03/14 12:37:01;;;;;;;6.30;1.70;;;;;;;;;;5045323;28;20197;-66
2021/03/14 12:39:26;;;;;;;6.23;2.03;;;;;;;;;;5049579;28;20268;-66
2021/03/14 12:41:52;;;;;;;10.40;3.23;;;;;;;;;;5040657;28;20247;-66
2021/03/14 12:44:17;;;;;;;9.83;2.00;;;;;;;;;;5048757;28;20439;-66
2021/03/14 12:46:42;;;;;;;6.63;1.83;;;;;;;;;;5035305;28;20173;-67
2021/03/14 12:49:07;;;;;;;6.43;2.00;;;;;;;;;;5044771;28;20196;-66
2021/03/14 12:51:33;;;;;;;6.03;1.50;;;;;;;;;;5034612;28;20182;-67
2021/03/14 12:53:58;;;;;;;7.33;1.80;;;;;;;;;;5037690;28;20200;-67
2021/03/14 12:56:24;;;;;;;5.97;1.77;;;;;;;;;;5035805;28;20194;-66
2021/03/14 12:58:50;;;;;;;4.80;2.03;;;;;;;;;;5042840;28;20183;-66
2021/03/14 13:01:15;;;;;;;6.80;1.63;;;;;;;;;;5042407;28;20194;-67
2021/03/14 13:03:40;;;;;;;7.50;1.60;;;;;;;;;;5045562;28;20634;-67
2021/03/14 13:06:05;;;;;;;10.37;2.27;;;;;;;;;;5044158;28;20178;-66
2021/03/14 13:08:30;;;;;;;4.70;1.73;;;;;;;;;;5044388;28;20217;-69
2021/03/14 13:10:55;;;;;;;12.33;2.63;;;;;;;;;;5046330;28;20202;-68
2021/03/14 13:13:21;;;;;;;10.03;2.47;;;;;;;;;;5035760;28;20198;-66
2021/03/14 13:15:46;;;;;;;7.87;1.77;;;;;;;;;;5052660;28;20327;-67
2021/03/14 13:18:11;;;;;;;11.90;2.40;;;;;;;;;;5044440;28;20189;-68
2021/03/14 13:20:36;;;;;;;8.40;2.00;;;;;;;;;;5044635;28;20197;-66
2021/03/14 13:23:02;;;;;;;8.70;2.40;;;;;;;;;;5044688;28;22219;-66
2021/03/14 13:25:29;;;;;;;10.63;2.00;;;;;;;;;;5047651;28;20189;-67
2021/03/14 13:27:57;;;;;;;10.20;2.97;;;;;;;;;;5039558;28;20181;-67
2021/03/14 13:30:22;;;;;;;11.80;1.77;;;;;;;;;;5038616;28;20284;-66
2021/03/14 13:32:47;;;;;;;8.77;1.97;;;;;;;;;;5049821;28;20319;-67
2021/03/14 13:35:12;;;;;;;6.93;2.23;;;;;;;;;;5041834;28;20235;-66
2021/03/14 13:37:38;;;;;;;8.10;2.30;;;;;;;;;;5046971;28;20268;-66
2021/03/14 13:40:04;;;;;;;11.40;2.60;;;;;;;;;;5046070;28;20212;-67
2021/03/14 13:42:29;;;;;;;10.30;2.20;;;;;;;;;;5045988;28;20213;-66
2021/03/14 13:44:54;;;;;;;14.57;3.00;;;;;;;;;;5048268;28;20680;-67
2021/03/14 13:47:20;;;;;;;7.93;2.50;;;;;;;;;;5044351;28;20198;-67
2021/03/14 13:49:45;;;;;;;7.17;2.30;;;;;;;;;;5044988;28;20296;-67
2021/03/14 13:52:11;;;;;;;12.20;2.03;;;;;;;;;;5047419;28;20609;-67
2021/03/14 13:54:36;;;;;;;8.03;2.50;;;;;;;;;;5045112;28;20712;-69
2021/03/14 13:57:01;;;;;;;12.50;2.70;;;;;;;;;;5043571;28;20581;-69
2021/03/14 13:59:26;;;;;;;9.93;1.97;;;;;;;;;;5045258;28;20202;-68
2021/03/14 14:01:51;;;;;;;9.30;2.00;;;;;;;;;;5041647;28;20213;-67
2021/03/14 14:04:17;;;;;;;5.23;2.10;;;;;;;;;;5043811;28;20174;-69
2021/03/14 14:06:42;;;;;;;10.10;2.03;;;;;;;;;;5050209;28;20177;-68
2021/03/14 14:09:08;;;;;;;9.13;2.27;;;;;;;;;;5045917;28;20208;-68
2021/03/14 14:11:33;;;;;;;10.37;2.40;;;;;;;;;;5041630;28;20620;-68
2021/03/14 14:13:58;;;;;;;9.07;1.97;;;;;;;;;;5034204;28;20276;-67
2021/03/14 14:16:23;;;;;;;6.20;1.57;;;;;;;;;;5043906;28;20185;-67
2021/03/14 14:18:49;;;;;;;6.67;2.53;;;;;;;;;;5044942;28;20284;-67
2021/03/14 14:21:14;;;;;;;9.20;2.70;;;;;;;;;;5039764;28;20239;-68
2021/03/14 14:23:39;;;;;;;9.77;1.93;;;;;;;;;;5043415;28;20174;-68
2021/03/14 14:26:04;;;;;;;5.78;2.42;;;;;;;;;;5045362;28;20180;-69
2021/03/14 14:28:29;;;;;;;12.33;2.27;;;;;;;;;;5042082;28;20213;-67
2021/03/14 14:30:54;;;;;;;5.87;2.03;;;;;;;;;;5041443;28;20213;-67
2021/03/14 14:33:20;;;;;;;12.97;1.97;;;;;;;;;;5046420;28;20196;-66
2021/03/14 14:35:45;;;;;;;9.83;3.17;;;;;;;;;;5044269;28;20186;-67